sensor_id;sensor_type;location;lat;lon;timestamp;P1;durP1;ratioP1;P2;durP2;ratioP2
76403;SDS011;65232;48.358;2.122;2023-06-22T00:00:08;4.88;;;3.40;;
76403;SDS011;65232;48.358;2.122;2023-06-22T00:00:37;3.50;;;2.90;;
76403;SDS011;65232;48.358;2.122;2023-06-22T00:01:04;4.18;;;3.70;;
76403;SDS011;65232;48.358;2.122;2023-06-22T00:01:29;4.35;;;3.08;;
76403;SDS011;65232;48.358;2.122;2023-06-22T00:01:55;7.95;;;3.20;;
76403;SDS011;65232;48.358;2.122;2023-06-22T00:02:21;4.38;;;3.10;;
76403;SDS011;65232;48.358;2.122;2023-06-22T00:02:46;7.65;;;3.38;;
76403;SDS011;65232;48.358;2.122;2023-06-22T00:03:12;5.75;;;3.15;;
76403;SDS011;65232;48.358;2.122;2023-06-22T00:03:37;5.85;;;2.97;;
76403;SDS011;65232;48.358;2.122;2023-06-22T00:04:03;5.88;;;3.47;;
76403;SDS011;65232;48.358;2.122;2023-06-22T00:04:29;4.80;;;3.15;;
76403;SDS011;65232;48.358;2.122;2023-06-22T00:04:54;4.47;;;3.20;;
76403;SDS011;65232;48.358;2.122;2023-06-22T00:05:20;5.07;;;3.50;;
76403;SDS011;65232;48.358;2.122;2023-06-22T00:05:46;4.18;;;3.40;;
76403;SDS011;65232;48.358;2.122;2023-06-22T00:06:12;6.20;;;3.53;;
76403;SDS011;65232;48.358;2.122;2023-06-22T00:06:38;3.65;;;2.95;;
76403;SDS011;65232;48.358;2.122;2023-06-22T00:07:03;4.78;;;3.10;;
76403;SDS011;65232;48.358;2.122;2023-06-22T00:07:29;3.42;;;3.08;;
76403;SDS011;65232;48.358;2.122;2023-06-22T00:07:55;4.88;;;3.20;;
76403;SDS011;65232;48.358;2.122;2023-06-22T00:08:20;5.07;;;2.90;;
76403;SDS011;65232;48.358;2.122;2023-06-22T00:08:46;5.72;;;3.67;;
76403;SDS011;65232;48.358;2.122;2023-06-22T00:09:12;3.75;;;3.15;;
76403;SDS011;65232;48.358;2.122;2023-06-22T00:09:37;4.65;;;3.15;;
76403;SDS011;65232;48.358;2.122;2023-06-22T00:10:03;4.72;;;3.28;;
76403;SDS011;65232;48.358;2.122;2023-06-22T00:10:29;4.50;;;3.42;;
76403;SDS011;65232;48.358;2.122;2023-06-22T00:10:54;4.13;;;3.45;;
76403;SDS011;65232;48.358;2.122;2023-06-22T00:11:20;4.53;;;3.03;;
76403;SDS011;65232;48.358;2.122;2023-06-22T00:11:45;4.95;;;3.15;;
76403;SDS011;65232;48.358;2.122;2023-06-22T00:12:11;3.70;;;3.22;;
76403;SDS011;65232;48.358;2.122;2023-06-22T00:12:37;3.47;;;2.92;;
76403;SDS011;65232;48.358;2.122;2023-06-22T00:13:03;4.88;;;3.30;;
76403;SDS011;65232;48.358;2.122;2023-06-22T00:13:29;4.07;;;3.10;;
76403;SDS011;65232;48.358;2.122;2023-06-22T00:13:54;4.70;;;3.28;;
76403;SDS011;65232;48.358;2.122;2023-06-22T00:14:20;3.90;;;3.20;;
76403;SDS011;65232;48.358;2.122;2023-06-22T00:14:45;3.90;;;3.20;;
76403;SDS011;65232;48.358;2.122;2023-06-22T00:15:11;5.40;;;3.80;;
76403;SDS011;65232;48.358;2.122;2023-06-22T00:15:37;5.10;;;3.35;;
76403;SDS011;65232;48.358;2.122;2023-06-22T00:16:03;4.30;;;3.00;;
76403;SDS011;65232;48.358;2.122;2023-06-22T00:16:32;5.70;;;3.45;;
76403;SDS011;65232;48.358;2.122;2023-06-22T00:16:58;5.35;;;3.20;;
76403;SDS011;65232;48.358;2.122;2023-06-22T00:17:24;5.93;;;3.20;;
76403;SDS011;65232;48.358;2.122;2023-06-22T00:17:49;3.90;;;3.40;;
76403;SDS011;65232;48.358;2.122;2023-06-22T00:18:15;4.72;;;3.30;;
76403;SDS011;65232;48.358;2.122;2023-06-22T00:18:41;6.85;;;3.60;;
76403;SDS011;65232;48.358;2.122;2023-06-22T00:19:12;3.75;;;3.10;;
76403;SDS011;65232;48.358;2.122;2023-06-22T00:19:37;3.92;;;3.03;;
76403;SDS011;65232;48.358;2.122;2023-06-22T00:20:05;3.92;;;3.15;;
76403;SDS011;65232;48.358;2.122;2023-06-22T00:20:33;7.25;;;3.00;;
76403;SDS011;65232;48.358;2.122;2023-06-22T00:20:59;4.35;;;3.22;;
76403;SDS011;65232;48.358;2.122;2023-06-22T00:21:25;4.00;;;3.03;;
76403;SDS011;65232;48.358;2.122;2023-06-22T00:21:51;4.57;;;2.83;;
76403;SDS011;65232;48.358;2.122;2023-06-22T00:22:19;3.47;;;3.10;;
76403;SDS011;65232;48.358;2.122;2023-06-22T00:22:56;4.47;;;3.35;;
76403;SDS011;65232;48.358;2.122;2023-06-22T00:23:22;5.20;;;3.28;;
76403;SDS011;65232;48.358;2.122;2023-06-22T00:23:48;4.00;;;2.83;;
76403;SDS011;65232;48.358;2.122;2023-06-22T00:24:14;6.45;;;3.10;;
76403;SDS011;65232;48.358;2.122;2023-06-22T00:24:40;3.78;;;3.10;;
76403;SDS011;65232;48.358;2.122;2023-06-22T00:25:06;3.63;;;2.97;;
76403;SDS011;65232;48.358;2.122;2023-06-22T00:25:32;4.63;;;2.90;;
76403;SDS011;65232;48.358;2.122;2023-06-22T00:25:58;4.28;;;3.13;;
76403;SDS011;65232;48.358;2.122;2023-06-22T00:26:23;5.80;;;3.10;;
76403;SDS011;65232;48.358;2.122;2023-06-22T00:26:49;5.93;;;3.20;;
76403;SDS011;65232;48.358;2.122;2023-06-22T00:27:15;5.15;;;3.05;;
76403;SDS011;65232;48.358;2.122;2023-06-22T00:27:41;4.88;;;2.85;;
76403;SDS011;65232;48.358;2.122;2023-06-22T00:28:06;4.75;;;2.95;;
76403;SDS011;65232;48.358;2.122;2023-06-22T00:28:34;6.57;;;3.40;;
76403;SDS011;65232;48.358;2.122;2023-06-22T00:29:00;5.13;;;3.63;;
76403;SDS011;65232;48.358;2.122;2023-06-22T00:29:26;4.15;;;3.08;;
76403;SDS011;65232;48.358;2.122;2023-06-22T00:29:55;5.90;;;3.47;;
76403;SDS011;65232;48.358;2.122;2023-06-22T00:30:20;5.53;;;3.15;;
76403;SDS011;65232;48.358;2.122;2023-06-22T00:30:46;3.95;;;3.33;;
76403;SDS011;65232;48.358;2.122;2023-06-22T00:31:13;5.47;;;3.28;;
76403;SDS011;65232;48.358;2.122;2023-06-22T00:31:39;6.15;;;3.42;;
76403;SDS011;65232;48.358;2.122;2023-06-22T00:32:05;4.15;;;3.42;;
76403;SDS011;65232;48.358;2.122;2023-06-22T00:32:30;4.75;;;3.10;;
76403;SDS011;65232;48.358;2.122;2023-06-22T00:32:56;5.40;;;3.30;;
76403;SDS011;65232;48.358;2.122;2023-06-22T00:33:22;5.32;;;3.53;;
76403;SDS011;65232;48.358;2.122;2023-06-22T00:33:47;3.85;;;3.17;;
76403;SDS011;65232;48.358;2.122;2023-06-22T00:34:15;3.95;;;3.10;;
76403;SDS011;65232;48.358;2.122;2023-06-22T00:34:41;4.20;;;3.15;;
76403;SDS011;65232;48.358;2.122;2023-06-22T00:35:07;4.75;;;3.25;;
76403;SDS011;65232;48.358;2.122;2023-06-22T00:35:33;5.97;;;2.97;;
76403;SDS011;65232;48.358;2.122;2023-06-22T00:36:24;5.95;;;3.20;;
76403;SDS011;65232;48.358;2.122;2023-06-22T00:36:50;5.72;;;3.00;;
76403;SDS011;65232;48.358;2.122;2023-06-22T00:37:17;5.80;;;3.03;;
76403;SDS011;65232;48.358;2.122;2023-06-22T00:37:43;5.03;;;3.08;;
76403;SDS011;65232;48.358;2.122;2023-06-22T00:38:09;4.28;;;2.70;;
76403;SDS011;65232;48.358;2.122;2023-06-22T00:38:34;4.57;;;3.33;;
76403;SDS011;65232;48.358;2.122;2023-06-22T00:39:05;4.40;;;2.85;;
76403;SDS011;65232;48.358;2.122;2023-06-22T00:39:32;3.38;;;2.90;;
76403;SDS011;65232;48.358;2.122;2023-06-22T00:40:24;3.25;;;2.90;;
76403;SDS011;65232;48.358;2.122;2023-06-22T00:40:49;4.55;;;3.28;;
76403;SDS011;65232;48.358;2.122;2023-06-22T00:41:15;3.85;;;2.88;;
76403;SDS011;65232;48.358;2.122;2023-06-22T00:41:40;3.95;;;2.83;;
76403;SDS011;65232;48.358;2.122;2023-06-22T00:42:06;7.18;;;3.03;;
76403;SDS011;65232;48.358;2.122;2023-06-22T00:42:31;4.78;;;3.42;;
76403;SDS011;65232;48.358;2.122;2023-06-22T00:42:57;7.40;;;3.53;;
76403;SDS011;65232;48.358;2.122;2023-06-22T00:43:23;6.32;;;3.08;;
76403;SDS011;65232;48.358;2.122;2023-06-22T00:43:49;4.93;;;2.92;;
76403;SDS011;65232;48.358;2.122;2023-06-22T00:44:14;4.50;;;3.17;;
76403;SDS011;65232;48.358;2.122;2023-06-22T00:44:40;3.58;;;2.80;;
76403;SDS011;65232;48.358;2.122;2023-06-22T00:45:06;3.95;;;2.95;;
76403;SDS011;65232;48.358;2.122;2023-06-22T00:45:32;4.05;;;2.90;;
76403;SDS011;65232;48.358;2.122;2023-06-22T00:45:58;4.15;;;2.92;;
76403;SDS011;65232;48.358;2.122;2023-06-22T00:46:24;5.20;;;3.50;;
76403;SDS011;65232;48.358;2.122;2023-06-22T00:46:54;4.30;;;3.30;;
76403;SDS011;65232;48.358;2.122;2023-06-22T00:47:19;5.28;;;2.95;;
76403;SDS011;65232;48.358;2.122;2023-06-22T00:47:45;3.28;;;2.63;;
76403;SDS011;65232;48.358;2.122;2023-06-22T00:48:10;4.20;;;3.08;;
76403;SDS011;65232;48.358;2.122;2023-06-22T00:48:37;5.05;;;3.38;;
76403;SDS011;65232;48.358;2.122;2023-06-22T00:49:05;4.28;;;3.08;;
76403;SDS011;65232;48.358;2.122;2023-06-22T00:49:30;3.88;;;3.20;;
76403;SDS011;65232;48.358;2.122;2023-06-22T00:49:56;4.55;;;2.78;;
76403;SDS011;65232;48.358;2.122;2023-06-22T00:50:22;6.00;;;3.42;;
76403;SDS011;65232;48.358;2.122;2023-06-22T00:50:49;4.13;;;3.00;;
76403;SDS011;65232;48.358;2.122;2023-06-22T00:51:16;4.70;;;2.90;;
76403;SDS011;65232;48.358;2.122;2023-06-22T00:51:42;3.95;;;2.60;;
76403;SDS011;65232;48.358;2.122;2023-06-22T00:52:10;3.95;;;3.00;;
76403;SDS011;65232;48.358;2.122;2023-06-22T00:52:46;4.60;;;2.88;;
76403;SDS011;65232;48.358;2.122;2023-06-22T00:53:16;4.40;;;2.92;;
76403;SDS011;65232;48.358;2.122;2023-06-22T00:53:42;3.47;;;2.72;;
76403;SDS011;65232;48.358;2.122;2023-06-22T00:54:09;7.57;;;2.60;;
76403;SDS011;65232;48.358;2.122;2023-06-22T00:54:37;4.03;;;2.50;;
76403;SDS011;65232;48.358;2.122;2023-06-22T00:55:02;3.60;;;3.08;;
76403;SDS011;65232;48.358;2.122;2023-06-22T00:55:29;4.35;;;2.70;;
76403;SDS011;65232;48.358;2.122;2023-06-22T00:55:54;3.83;;;2.85;;
76403;SDS011;65232;48.358;2.122;2023-06-22T00:56:20;4.35;;;2.67;;
76403;SDS011;65232;48.358;2.122;2023-06-22T00:56:53;3.70;;;2.95;;
76403;SDS011;65232;48.358;2.122;2023-06-22T00:57:20;3.67;;;2.90;;
76403;SDS011;65232;48.358;2.122;2023-06-22T00:57:47;4.05;;;2.58;;
76403;SDS011;65232;48.358;2.122;2023-06-22T00:58:13;3.67;;;2.45;;
76403;SDS011;65232;48.358;2.122;2023-06-22T00:58:40;4.25;;;2.72;;
76403;SDS011;65232;48.358;2.122;2023-06-22T00:59:06;3.92;;;3.00;;
76403;SDS011;65232;48.358;2.122;2023-06-22T00:59:34;4.85;;;3.00;;
76403;SDS011;65232;48.358;2.122;2023-06-22T00:59:59;4.75;;;2.70;;
76403;SDS011;65232;48.358;2.122;2023-06-22T01:00:25;4.70;;;2.90;;
76403;SDS011;65232;48.358;2.122;2023-06-22T01:00:52;2.85;;;2.55;;
76403;SDS011;65232;48.358;2.122;2023-06-22T01:01:18;4.15;;;2.80;;
76403;SDS011;65232;48.358;2.122;2023-06-22T01:01:48;3.75;;;2.97;;
76403;SDS011;65232;48.358;2.122;2023-06-22T01:02:13;3.08;;;2.35;;
76403;SDS011;65232;48.358;2.122;2023-06-22T01:02:39;4.32;;;2.80;;
76403;SDS011;65232;48.358;2.122;2023-06-22T01:03:06;2.95;;;2.60;;
76403;SDS011;65232;48.358;2.122;2023-06-22T01:03:35;3.40;;;2.70;;
76403;SDS011;65232;48.358;2.122;2023-06-22T01:04:03;4.13;;;3.22;;
76403;SDS011;65232;48.358;2.122;2023-06-22T01:04:34;3.35;;;2.60;;
76403;SDS011;65232;48.358;2.122;2023-06-22T01:05:01;3.50;;;2.78;;
76403;SDS011;65232;48.358;2.122;2023-06-22T01:05:27;3.13;;;2.47;;
76403;SDS011;65232;48.358;2.122;2023-06-22T01:05:56;3.42;;;2.42;;
76403;SDS011;65232;48.358;2.122;2023-06-22T01:06:35;4.15;;;2.85;;
76403;SDS011;65232;48.358;2.122;2023-06-22T01:08:48;4.35;;;2.22;;
76403;SDS011;65232;48.358;2.122;2023-06-22T01:09:28;3.15;;;2.50;;
76403;SDS011;65232;48.358;2.122;2023-06-22T01:10:07;3.35;;;2.83;;
76403;SDS011;65232;48.358;2.122;2023-06-22T01:11:16;3.30;;;2.35;;
76403;SDS011;65232;48.358;2.122;2023-06-22T01:11:50;3.42;;;2.50;;
76403;SDS011;65232;48.358;2.122;2023-06-22T01:12:23;3.53;;;2.38;;
76403;SDS011;65232;48.358;2.122;2023-06-22T01:12:52;4.03;;;2.65;;
76403;SDS011;65232;48.358;2.122;2023-06-22T01:13:32;4.40;;;2.85;;
76403;SDS011;65232;48.358;2.122;2023-06-22T01:14:12;4.13;;;2.28;;
76403;SDS011;65232;48.358;2.122;2023-06-22T01:14:47;3.03;;;2.20;;
76403;SDS011;65232;48.358;2.122;2023-06-22T01:15:21;4.10;;;2.80;;
76403;SDS011;65232;48.358;2.122;2023-06-22T01:16:00;4.28;;;2.78;;
76403;SDS011;65232;48.358;2.122;2023-06-22T01:16:31;3.78;;;2.33;;
76403;SDS011;65232;48.358;2.122;2023-06-22T01:16:59;3.10;;;2.40;;
76403;SDS011;65232;48.358;2.122;2023-06-22T01:17:26;2.63;;;2.25;;
76403;SDS011;65232;48.358;2.122;2023-06-22T01:17:52;6.18;;;2.45;;
76403;SDS011;65232;48.358;2.122;2023-06-22T01:18:18;3.17;;;2.50;;
76403;SDS011;65232;48.358;2.122;2023-06-22T01:18:46;3.92;;;2.40;;
76403;SDS011;65232;48.358;2.122;2023-06-22T01:20:00;4.35;;;2.60;;
76403;SDS011;65232;48.358;2.122;2023-06-22T01:20:09;2.75;;;2.35;;
76403;SDS011;65232;48.358;2.122;2023-06-22T01:20:37;3.90;;;2.28;;
76403;SDS011;65232;48.358;2.122;2023-06-22T01:21:05;3.00;;;2.38;;
76403;SDS011;65232;48.358;2.122;2023-06-22T01:21:34;3.72;;;2.55;;
76403;SDS011;65232;48.358;2.122;2023-06-22T01:22:00;3.95;;;2.30;;
76403;SDS011;65232;48.358;2.122;2023-06-22T01:22:30;7.00;;;2.70;;
76403;SDS011;65232;48.358;2.122;2023-06-22T01:24:55;3.22;;;2.40;;
76403;SDS011;65232;48.358;2.122;2023-06-22T01:26:25;3.50;;;2.15;;
76403;SDS011;65232;48.358;2.122;2023-06-22T01:27:56;3.42;;;1.92;;
76403;SDS011;65232;48.358;2.122;2023-06-22T01:28:41;2.88;;;2.35;;
76403;SDS011;65232;48.358;2.122;2023-06-22T01:29:12;3.03;;;2.42;;
76403;SDS011;65232;48.358;2.122;2023-06-22T01:29:40;3.25;;;2.47;;
76403;SDS011;65232;48.358;2.122;2023-06-22T01:30:08;3.30;;;2.00;;
76403;SDS011;65232;48.358;2.122;2023-06-22T01:30:35;2.72;;;2.35;;
76403;SDS011;65232;48.358;2.122;2023-06-22T01:31:04;5.50;;;2.42;;
76403;SDS011;65232;48.358;2.122;2023-06-22T01:31:31;4.70;;;2.20;;
76403;SDS011;65232;48.358;2.122;2023-06-22T01:31:59;3.13;;;2.15;;
76403;SDS011;65232;48.358;2.122;2023-06-22T01:32:32;3.30;;;2.10;;
76403;SDS011;65232;48.358;2.122;2023-06-22T01:32:59;3.58;;;2.50;;
76403;SDS011;65232;48.358;2.122;2023-06-22T01:33:27;2.67;;;2.10;;
76403;SDS011;65232;48.358;2.122;2023-06-22T01:33:55;3.60;;;2.20;;
76403;SDS011;65232;48.358;2.122;2023-06-22T01:34:23;3.95;;;2.33;;
76403;SDS011;65232;48.358;2.122;2023-06-22T01:34:49;2.60;;;2.08;;
76403;SDS011;65232;48.358;2.122;2023-06-22T01:35:41;3.38;;;2.03;;
76403;SDS011;65232;48.358;2.122;2023-06-22T01:36:08;2.72;;;1.95;;
76403;SDS011;65232;48.358;2.122;2023-06-22T01:36:34;3.20;;;2.20;;
76403;SDS011;65232;48.358;2.122;2023-06-22T01:37:00;2.97;;;2.10;;
76403;SDS011;65232;48.358;2.122;2023-06-22T01:37:28;3.80;;;2.20;;
76403;SDS011;65232;48.358;2.122;2023-06-22T01:37:56;3.40;;;2.20;;
76403;SDS011;65232;48.358;2.122;2023-06-22T01:38:22;2.83;;;2.20;;
76403;SDS011;65232;48.358;2.122;2023-06-22T01:38:48;3.53;;;2.05;;
76403;SDS011;65232;48.358;2.122;2023-06-22T01:39:16;3.13;;;2.13;;
76403;SDS011;65232;48.358;2.122;2023-06-22T01:39:43;4.45;;;2.20;;
76403;SDS011;65232;48.358;2.122;2023-06-22T01:40:09;3.65;;;2.40;;
76403;SDS011;65232;48.358;2.122;2023-06-22T01:41:01;3.45;;;2.13;;
76403;SDS011;65232;48.358;2.122;2023-06-22T01:41:29;3.92;;;2.78;;
76403;SDS011;65232;48.358;2.122;2023-06-22T01:41:57;3.78;;;2.42;;
76403;SDS011;65232;48.358;2.122;2023-06-22T01:42:23;3.15;;;2.20;;
76403;SDS011;65232;48.358;2.122;2023-06-22T01:42:50;3.90;;;2.35;;
76403;SDS011;65232;48.358;2.122;2023-06-22T01:43:16;3.13;;;2.30;;
76403;SDS011;65232;48.358;2.122;2023-06-22T01:43:42;3.53;;;2.17;;
76403;SDS011;65232;48.358;2.122;2023-06-22T01:44:34;4.20;;;2.13;;
76403;SDS011;65232;48.358;2.122;2023-06-22T01:45:01;3.85;;;2.15;;
76403;SDS011;65232;48.358;2.122;2023-06-22T01:45:29;3.92;;;2.55;;
76403;SDS011;65232;48.358;2.122;2023-06-22T01:45:56;3.60;;;2.40;;
76403;SDS011;65232;48.358;2.122;2023-06-22T01:46:23;4.00;;;2.55;;
76403;SDS011;65232;48.358;2.122;2023-06-22T01:46:49;3.42;;;2.33;;
76403;SDS011;65232;48.358;2.122;2023-06-22T01:47:15;3.75;;;2.40;;
76403;SDS011;65232;48.358;2.122;2023-06-22T01:47:42;3.78;;;2.15;;
76403;SDS011;65232;48.358;2.122;2023-06-22T01:48:08;3.72;;;2.20;;
76403;SDS011;65232;48.358;2.122;2023-06-22T01:49:01;3.03;;;2.22;;
76403;SDS011;65232;48.358;2.122;2023-06-22T01:49:28;3.50;;;2.40;;
76403;SDS011;65232;48.358;2.122;2023-06-22T01:49:53;4.30;;;2.40;;
76403;SDS011;65232;48.358;2.122;2023-06-22T01:50:20;2.70;;;2.10;;
76403;SDS011;65232;48.358;2.122;2023-06-22T01:51:12;3.47;;;2.25;;
76403;SDS011;65232;48.358;2.122;2023-06-22T01:52:03;2.85;;;2.28;;
76403;SDS011;65232;48.358;2.122;2023-06-22T01:52:30;3.22;;;2.10;;
76403;SDS011;65232;48.358;2.122;2023-06-22T01:52:55;3.85;;;1.90;;
76403;SDS011;65232;48.358;2.122;2023-06-22T01:53:22;3.42;;;2.20;;
76403;SDS011;65232;48.358;2.122;2023-06-22T01:53:50;2.53;;;1.90;;
76403;SDS011;65232;48.358;2.122;2023-06-22T01:54:18;3.25;;;2.13;;
76403;SDS011;65232;48.358;2.122;2023-06-22T01:54:45;4.60;;;1.98;;
76403;SDS011;65232;48.358;2.122;2023-06-22T01:55:11;4.63;;;2.17;;
76403;SDS011;65232;48.358;2.122;2023-06-22T01:55:36;4.40;;;2.30;;
76403;SDS011;65232;48.358;2.122;2023-06-22T01:56:02;3.92;;;2.33;;
76403;SDS011;65232;48.358;2.122;2023-06-22T01:56:28;3.90;;;2.00;;
76403;SDS011;65232;48.358;2.122;2023-06-22T01:56:53;2.75;;;2.20;;
76403;SDS011;65232;48.358;2.122;2023-06-22T01:57:19;3.28;;;2.08;;
76403;SDS011;65232;48.358;2.122;2023-06-22T01:57:45;3.67;;;2.50;;
76403;SDS011;65232;48.358;2.122;2023-06-22T01:58:10;3.40;;;2.00;;
76403;SDS011;65232;48.358;2.122;2023-06-22T01:58:37;2.90;;;2.20;;
76403;SDS011;65232;48.358;2.122;2023-06-22T01:59:20;3.47;;;2.42;;
76403;SDS011;65232;48.358;2.122;2023-06-22T02:00:05;3.72;;;2.30;;
76403;SDS011;65232;48.358;2.122;2023-06-22T02:00:44;4.03;;;2.10;;
76403;SDS011;65232;48.358;2.122;2023-06-22T02:01:17;2.63;;;2.20;;
76403;SDS011;65232;48.358;2.122;2023-06-22T02:02:37;3.22;;;1.92;;
76403;SDS011;65232;48.358;2.122;2023-06-22T02:03:09;2.63;;;2.20;;
76403;SDS011;65232;48.358;2.122;2023-06-22T02:03:40;3.25;;;2.15;;
76403;SDS011;65232;48.358;2.122;2023-06-22T02:04:13;4.22;;;2.50;;
76403;SDS011;65232;48.358;2.122;2023-06-22T02:04:59;2.63;;;2.00;;
76403;SDS011;65232;48.358;2.122;2023-06-22T02:05:34;2.65;;;1.90;;
76403;SDS011;65232;48.358;2.122;2023-06-22T02:06:07;3.42;;;2.42;;
76403;SDS011;65232;48.358;2.122;2023-06-22T02:06:36;2.83;;;2.10;;
76403;SDS011;65232;48.358;2.122;2023-06-22T02:07:05;4.00;;;2.20;;
76403;SDS011;65232;48.358;2.122;2023-06-22T02:08:23;5.07;;;2.22;;
76403;SDS011;65232;48.358;2.122;2023-06-22T02:08:47;2.42;;;1.90;;
76403;SDS011;65232;48.358;2.122;2023-06-22T02:09:17;4.22;;;2.17;;
76403;SDS011;65232;48.358;2.122;2023-06-22T02:09:45;3.85;;;1.92;;
76403;SDS011;65232;48.358;2.122;2023-06-22T02:10:14;3.78;;;2.08;;
76403;SDS011;65232;48.358;2.122;2023-06-22T02:10:44;3.28;;;2.08;;
76403;SDS011;65232;48.358;2.122;2023-06-22T02:11:11;3.50;;;2.05;;
76403;SDS011;65232;48.358;2.122;2023-06-22T02:11:40;2.95;;;2.17;;
76403;SDS011;65232;48.358;2.122;2023-06-22T02:12:07;3.92;;;2.33;;
76403;SDS011;65232;48.358;2.122;2023-06-22T02:12:36;3.38;;;2.00;;
76403;SDS011;65232;48.358;2.122;2023-06-22T02:13:03;3.72;;;2.10;;
76403;SDS011;65232;48.358;2.122;2023-06-22T02:13:31;2.35;;;1.67;;
76403;SDS011;65232;48.358;2.122;2023-06-22T02:13:58;3.17;;;2.17;;
76403;SDS011;65232;48.358;2.122;2023-06-22T02:14:24;3.33;;;2.22;;
76403;SDS011;65232;48.358;2.122;2023-06-22T02:15:16;3.42;;;2.05;;
76403;SDS011;65232;48.358;2.122;2023-06-22T02:15:45;5.93;;;2.35;;
76403;SDS011;65232;48.358;2.122;2023-06-22T02:16:12;3.35;;;2.20;;
76403;SDS011;65232;48.358;2.122;2023-06-22T02:16:40;2.72;;;2.03;;
76403;SDS011;65232;48.358;2.122;2023-06-22T02:17:08;4.10;;;2.28;;
76403;SDS011;65232;48.358;2.122;2023-06-22T02:18:00;3.25;;;2.03;;
76403;SDS011;65232;48.358;2.122;2023-06-22T02:18:26;3.60;;;2.60;;
76403;SDS011;65232;48.358;2.122;2023-06-22T02:18:52;3.05;;;2.10;;
76403;SDS011;65232;48.358;2.122;2023-06-22T02:19:17;3.10;;;2.05;;
76403;SDS011;65232;48.358;2.122;2023-06-22T02:19:48;4.90;;;2.42;;
76403;SDS011;65232;48.358;2.122;2023-06-22T02:20:14;3.10;;;2.15;;
76403;SDS011;65232;48.358;2.122;2023-06-22T02:20:40;2.90;;;2.17;;
76403;SDS011;65232;48.358;2.122;2023-06-22T02:21:06;2.70;;;1.90;;
76403;SDS011;65232;48.358;2.122;2023-06-22T02:21:32;2.92;;;2.30;;
76403;SDS011;65232;48.358;2.122;2023-06-22T02:21:58;3.97;;;2.20;;
76403;SDS011;65232;48.358;2.122;2023-06-22T02:22:23;4.57;;;2.30;;
76403;SDS011;65232;48.358;2.122;2023-06-22T02:22:49;4.10;;;2.45;;
76403;SDS011;65232;48.358;2.122;2023-06-22T02:23:14;2.80;;;2.20;;
76403;SDS011;65232;48.358;2.122;2023-06-22T02:23:40;3.45;;;2.00;;
76403;SDS011;65232;48.358;2.122;2023-06-22T02:24:05;3.25;;;2.22;;
76403;SDS011;65232;48.358;2.122;2023-06-22T02:24:31;3.53;;;2.30;;
76403;SDS011;65232;48.358;2.122;2023-06-22T02:24:58;4.20;;;2.28;;
76403;SDS011;65232;48.358;2.122;2023-06-22T02:25:24;3.20;;;2.22;;
76403;SDS011;65232;48.358;2.122;2023-06-22T02:25:49;4.25;;;2.08;;
76403;SDS011;65232;48.358;2.122;2023-06-22T02:26:16;2.95;;;1.85;;
76403;SDS011;65232;48.358;2.122;2023-06-22T02:26:43;3.58;;;1.95;;
76403;SDS011;65232;48.358;2.122;2023-06-22T02:27:10;2.47;;;1.90;;
76403;SDS011;65232;48.358;2.122;2023-06-22T02:27:36;3.53;;;2.10;;
76403;SDS011;65232;48.358;2.122;2023-06-22T02:28:05;2.85;;;2.35;;
76403;SDS011;65232;48.358;2.122;2023-06-22T02:28:30;3.28;;;2.22;;
76403;SDS011;65232;48.358;2.122;2023-06-22T02:28:56;3.28;;;2.03;;
76403;SDS011;65232;48.358;2.122;2023-06-22T02:29:21;2.85;;;2.22;;
76403;SDS011;65232;48.358;2.122;2023-06-22T02:29:47;3.47;;;2.47;;
76403;SDS011;65232;48.358;2.122;2023-06-22T02:30:12;4.18;;;2.28;;
76403;SDS011;65232;48.358;2.122;2023-06-22T02:30:40;3.83;;;2.30;;
76403;SDS011;65232;48.358;2.122;2023-06-22T02:31:06;2.92;;;2.05;;
76403;SDS011;65232;48.358;2.122;2023-06-22T02:31:31;2.60;;;2.03;;
76403;SDS011;65232;48.358;2.122;2023-06-22T02:31:57;3.97;;;2.10;;
76403;SDS011;65232;48.358;2.122;2023-06-22T02:32:23;3.13;;;1.92;;
76403;SDS011;65232;48.358;2.122;2023-06-22T02:32:48;4.53;;;2.30;;
76403;SDS011;65232;48.358;2.122;2023-06-22T02:33:14;2.70;;;1.90;;
76403;SDS011;65232;48.358;2.122;2023-06-22T02:33:40;3.35;;;2.30;;
76403;SDS011;65232;48.358;2.122;2023-06-22T02:34:05;3.08;;;1.98;;
76403;SDS011;65232;48.358;2.122;2023-06-22T02:34:31;3.55;;;2.15;;
76403;SDS011;65232;48.358;2.122;2023-06-22T02:34:58;3.88;;;1.80;;
76403;SDS011;65232;48.358;2.122;2023-06-22T02:35:30;2.90;;;2.00;;
76403;SDS011;65232;48.358;2.122;2023-06-22T02:35:56;2.50;;;1.90;;
76403;SDS011;65232;48.358;2.122;2023-06-22T02:36:22;4.35;;;1.90;;
76403;SDS011;65232;48.358;2.122;2023-06-22T02:36:49;4.20;;;2.20;;
76403;SDS011;65232;48.358;2.122;2023-06-22T02:37:17;3.53;;;2.35;;
76403;SDS011;65232;48.358;2.122;2023-06-22T02:37:43;3.33;;;2.10;;
76403;SDS011;65232;48.358;2.122;2023-06-22T02:38:08;3.75;;;2.10;;
76403;SDS011;65232;48.358;2.122;2023-06-22T02:38:34;2.90;;;2.00;;
76403;SDS011;65232;48.358;2.122;2023-06-22T02:39:01;2.85;;;2.10;;
76403;SDS011;65232;48.358;2.122;2023-06-22T02:39:29;3.63;;;2.05;;
76403;SDS011;65232;48.358;2.122;2023-06-22T02:39:55;3.33;;;2.22;;
76403;SDS011;65232;48.358;2.122;2023-06-22T02:40:20;2.80;;;2.17;;
76403;SDS011;65232;48.358;2.122;2023-06-22T02:40:46;2.40;;;1.80;;
76403;SDS011;65232;48.358;2.122;2023-06-22T02:41:11;2.85;;;2.10;;
76403;SDS011;65232;48.358;2.122;2023-06-22T02:41:38;3.63;;;1.90;;
76403;SDS011;65232;48.358;2.122;2023-06-22T02:42:03;3.33;;;2.20;;
76403;SDS011;65232;48.358;2.122;2023-06-22T02:42:29;2.67;;;2.13;;
76403;SDS011;65232;48.358;2.122;2023-06-22T02:42:55;3.15;;;2.58;;
76403;SDS011;65232;48.358;2.122;2023-06-22T02:43:23;2.75;;;1.80;;
76403;SDS011;65232;48.358;2.122;2023-06-22T02:43:48;2.78;;;2.03;;
76403;SDS011;65232;48.358;2.122;2023-06-22T02:44:14;2.85;;;2.17;;
76403;SDS011;65232;48.358;2.122;2023-06-22T02:44:40;3.63;;;2.10;;
76403;SDS011;65232;48.358;2.122;2023-06-22T02:45:06;3.15;;;2.03;;
76403;SDS011;65232;48.358;2.122;2023-06-22T02:45:32;3.33;;;2.30;;
76403;SDS011;65232;48.358;2.122;2023-06-22T02:45:57;3.92;;;2.10;;
76403;SDS011;65232;48.358;2.122;2023-06-22T02:46:23;3.50;;;2.00;;
76403;SDS011;65232;48.358;2.122;2023-06-22T02:46:49;3.67;;;2.25;;
76403;SDS011;65232;48.358;2.122;2023-06-22T02:47:15;4.05;;;2.25;;
76403;SDS011;65232;48.358;2.122;2023-06-22T02:47:41;2.65;;;2.15;;
76403;SDS011;65232;48.358;2.122;2023-06-22T02:48:06;2.67;;;1.98;;
76403;SDS011;65232;48.358;2.122;2023-06-22T02:48:32;3.40;;;2.10;;
76403;SDS011;65232;48.358;2.122;2023-06-22T02:48:58;5.40;;;2.20;;
76403;SDS011;65232;48.358;2.122;2023-06-22T02:49:24;3.40;;;2.05;;
76403;SDS011;65232;48.358;2.122;2023-06-22T02:49:49;5.05;;;2.55;;
76403;SDS011;65232;48.358;2.122;2023-06-22T02:50:15;3.40;;;2.25;;
76403;SDS011;65232;48.358;2.122;2023-06-22T02:50:41;3.75;;;2.17;;
76403;SDS011;65232;48.358;2.122;2023-06-22T02:51:06;4.03;;;2.10;;
76403;SDS011;65232;48.358;2.122;2023-06-22T02:51:34;4.13;;;2.20;;
76403;SDS011;65232;48.358;2.122;2023-06-22T02:51:59;3.45;;;2.20;;
76403;SDS011;65232;48.358;2.122;2023-06-22T02:52:25;2.92;;;1.85;;
76403;SDS011;65232;48.358;2.122;2023-06-22T02:52:51;4.90;;;2.20;;
76403;SDS011;65232;48.358;2.122;2023-06-22T02:53:17;3.60;;;2.38;;
76403;SDS011;65232;48.358;2.122;2023-06-22T02:53:46;3.03;;;2.00;;
76403;SDS011;65232;48.358;2.122;2023-06-22T02:54:13;3.08;;;2.15;;
76403;SDS011;65232;48.358;2.122;2023-06-22T02:54:40;2.60;;;2.10;;
76403;SDS011;65232;48.358;2.122;2023-06-22T02:55:33;2.95;;;2.00;;
76403;SDS011;65232;48.358;2.122;2023-06-22T02:55:58;2.17;;;1.70;;
76403;SDS011;65232;48.358;2.122;2023-06-22T02:56:31;3.10;;;2.17;;
76403;SDS011;65232;48.358;2.122;2023-06-22T02:56:59;3.70;;;1.95;;
76403;SDS011;65232;48.358;2.122;2023-06-22T02:57:29;4.15;;;2.38;;
76403;SDS011;65232;48.358;2.122;2023-06-22T02:57:54;3.58;;;2.30;;